Time;durP1;ratioP1;P1;durP2;ratioP2;P2;SDS_P1;SDS_P2;PMS_P1;PMS_P2;Temp;Humidity;BMP_temperature;BMP_pressure;BME280_temperature;BME280_humidity;BME280_pressure;Samples;Min_cycle;Max_cycle;Signal;HPM_P1;HPM_P2
2021/11/06 00:01:31;;;;;;;7.20;6.50;;;5.50;99.90;;;;;;5037970;28;20291;-79
2021/11/06 00:03:57;;;;;;;6.80;6.20;;;5.50;99.90;;;;;;5021017;28;20279;-79
2021/11/06 00:06:22;;;;;;;7.20;6.50;;;5.50;99.90;;;;;;5037567;28;20180;-79
2021/11/06 00:08:48;;;;;;;6.93;6.33;;;5.60;99.90;;;;;;5019504;28;20179;-79
2021/11/06 00:11:14;;;;;;;7.07;6.47;;;5.60;99.90;;;;;;5018706;28;20209;-79
2021/11/06 00:13:40;;;;;;;7.60;6.90;;;5.60;99.90;;;;;;5037002;28;20176;-79
2021/11/06 00:16:06;;;;;;;9.13;7.03;;;5.60;99.90;;;;;;5036980;28;20180;-79
2021/11/06 00:18:31;;;;;;;7.07;6.37;;;5.90;99.90;;;;;;5019473;28;20316;-79
2021/11/06 00:20:57;;;;;;;7.47;6.80;;;5.70;99.90;;;;;;5036275;28;20197;-78
2021/11/06 00:23:23;;;;;;;8.07;7.03;;;5.70;99.90;;;;;;5036916;28;20546;-79
2021/11/06 00:25:48;;;;;;;7.73;6.93;;;5.70;99.90;;;;;;5036329;28;20177;-79
2021/11/06 00:28:14;;;;;;;7.40;6.80;;;5.70;99.90;;;;;;5036693;28;20198;-79
2021/11/06 00:30:40;;;;;;;7.30;6.70;;;5.70;99.90;;;;;;5036912;28;20723;-79
2021/11/06 00:33:06;;;;;;;8.17;7.43;;;5.70;99.90;;;;;;5036222;28;20204;-78
2021/11/06 00:35:31;;;;;;;8.53;7.73;;;5.70;99.90;;;;;;5019133;28;20178;-78
2021/11/06 00:37:57;;;;;;;8.47;7.30;;;5.70;99.90;;;;;;5036042;28;20252;-78
2021/11/06 00:40:23;;;;;;;8.20;7.30;;;5.80;99.90;;;;;;5018790;28;20595;-79
2021/11/06 00:42:49;;;;;;;8.43;7.67;;;5.80;99.90;;;;;;5036173;28;20326;-78
2021/11/06 00:45:15;;;;;;;8.20;7.10;;;5.80;99.90;;;;;;5018998;28;20613;-79
2021/11/06 00:47:42;;;;;;;7.80;7.07;;;5.90;99.90;;;;;;5036246;28;20206;-79
2021/11/06 00:50:10;;;;;;;8.23;7.43;;;5.80;99.90;;;;;;5036311;28;20205;-78
2021/11/06 00:52:36;;;;;;;7.93;7.13;;;5.90;99.90;;;;;;5018089;28;20207;-79
2021/11/06 00:55:03;;;;;;;8.70;7.80;;;5.90;99.90;;;;;;5018311;28;20189;-79
2021/11/06 00:57:29;;;;;;;8.07;7.23;;;5.90;99.90;;;;;;5036330;28;20196;-79
2021/11/06 00:59:55;;;;;;;9.43;8.23;;;5.90;99.90;;;;;;5035646;28;20213;-78
2021/11/06 01:02:21;;;;;;;8.07;7.27;;;5.90;99.90;;;;;;5036299;28;20702;-78
2021/11/06 01:04:47;;;;;;;8.23;7.43;;;5.90;99.90;;;;;;5036313;28;20197;-78
2021/11/06 01:07:12;;;;;;;9.37;8.37;;;5.90;99.90;;;;;;5035977;28;20186;-78
2021/11/06 01:09:38;;;;;;;8.40;7.60;;;5.90;99.90;;;;;;5036057;28;20209;-78
2021/11/06 01:12:04;;;;;;;9.10;8.20;;;5.90;99.90;;;;;;5035944;28;20605;-78
2021/11/06 01:14:30;;;;;;;9.07;8.13;;;5.90;99.90;;;;;;5015163;28;20171;-79
2021/11/06 01:16:55;;;;;;;8.90;8.10;;;5.90;99.90;;;;;;5036028;28;20545;-77
2021/11/06 01:19:21;;;;;;;8.17;7.37;;;5.90;99.90;;;;;;5035408;28;20196;-78
2021/11/06 01:21:47;;;;;;;9.30;8.40;;;5.90;99.90;;;;;;5035617;28;20211;-78
2021/11/06 01:24:13;;;;;;;8.23;7.43;;;5.90;99.90;;;;;;5017289;28;20217;-79
2021/11/06 01:26:38;;;;;;;9.07;8.27;;;5.90;99.90;;;;;;5035760;28;20272;-78
2021/11/06 01:29:04;;;;;;;10.03;8.73;;;5.90;99.90;;;;;;5018147;28;20193;-78
2021/11/06 01:31:30;;;;;;;10.20;9.30;;;5.90;99.90;;;;;;5017794;28;20198;-79
2021/11/06 01:33:56;;;;;;;9.90;8.97;;;5.90;99.90;;;;;;5035378;28;20266;-78
2021/11/06 01:36:22;;;;;;;10.60;9.27;;;5.90;99.90;;;;;;5018052;28;20182;-79
2021/11/06 01:38:47;;;;;;;11.27;10.17;;;5.90;99.90;;;;;;5035172;28;20184;-78
2021/11/06 01:41:13;;;;;;;10.30;9.30;;;5.80;99.90;;;;;;5035329;28;20209;-78
2021/11/06 01:43:40;;;;;;;9.77;8.87;;;5.80;99.90;;;;;;5017735;28;20291;-79
2021/11/06 01:46:07;;;;;;;10.70;9.60;;;5.80;99.90;;;;;;5035185;28;20188;-78
2021/11/06 01:48:33;;;;;;;10.80;9.67;;;5.80;99.90;;;;;;5035181;28;20181;-78
2021/11/06 01:51:00;;;;;;;11.00;9.90;;;5.70;99.90;;;;;;5034983;28;20257;-78
2021/11/06 01:53:27;;;;;;;10.43;9.33;;;5.70;99.90;;;;;;5035002;28;20177;-78
2021/11/06 01:55:54;;;;;;;11.40;9.97;;;5.60;99.90;;;;;;5017803;28;20650;-78
2021/11/06 01:58:22;;;;;;;11.57;10.37;;;5.80;99.90;;;;;;5035464;28;20197;-78
2021/11/06 02:00:48;;;;;;;10.50;9.50;;;5.60;99.90;;;;;;5017661;28;20189;-78
2021/11/06 02:03:15;;;;;;;10.90;9.77;;;5.60;99.90;;;;;;5034808;28;20708;-78
2021/11/06 02:05:41;;;;;;;11.20;9.53;;;5.60;99.90;;;;;;5035239;28;20185;-78
2021/11/06 02:08:07;;;;;;;12.47;10.27;;;5.50;99.90;;;;;;5018007;28;20261;-78
2021/11/06 02:10:33;;;;;;;12.20;10.90;;;5.60;99.90;;;;;;5034942;28;20225;-78
2021/11/06 02:12:59;;;;;;;13.67;10.67;;;5.60;99.90;;;;;;5035071;28;20232;-78
2021/11/06 02:15:26;;;;;;;11.80;10.40;;;5.60;99.90;;;;;;5035004;28;20178;-78
2021/11/06 02:17:52;;;;;;;12.03;10.50;;;5.70;99.90;;;;;;5035063;28;20179;-78
2021/11/06 02:20:19;;;;;;;11.67;10.47;;;5.60;99.90;;;;;;5033881;28;20194;-77
2021/11/06 02:22:46;;;;;;;12.70;10.77;;;5.50;99.90;;;;;;5033945;28;20608;-78
2021/11/06 02:25:13;;;;;;;11.20;10.10;;;5.50;99.90;;;;;;5033902;28;20178;-77
2021/11/06 02:27:39;;;;;;;14.03;10.87;;;5.50;99.90;;;;;;5033875;28;20201;-78
2021/11/06 02:30:08;;;;;;;10.73;9.67;;;5.40;99.90;;;;;;5033224;28;20255;-77
2021/11/06 02:32:34;;;;;;;10.10;9.17;;;5.40;99.90;;;;;;5033772;28;20690;-78
2021/11/06 02:35:00;;;;;;;15.10;10.47;;;5.40;99.90;;;;;;5035716;28;20232;-78
2021/11/06 02:37:26;;;;;;;13.60;10.40;;;5.50;99.90;;;;;;5019698;28;20235;-78
2021/11/06 02:39:52;;;;;;;10.73;9.63;;;5.30;99.90;;;;;;5037577;28;20171;-78
2021/11/06 02:42:18;;;;;;;11.60;10.20;;;5.30;99.90;;;;;;5037117;28;20287;-78
2021/11/06 02:44:44;;;;;;;13.87;9.87;;;5.30;99.90;;;;;;5037509;28;20211;-77
2021/11/06 02:47:10;;;;;;;10.53;9.43;;;5.30;99.90;;;;;;5035350;28;20190;-78
2021/11/06 02:49:35;;;;;;;10.73;9.63;;;5.30;99.90;;;;;;5027713;28;20213;-78
2021/11/06 02:52:02;;;;;;;11.63;10.43;;;5.30;99.90;;;;;;5017980;28;20199;-77
2021/11/06 02:54:28;;;;;;;10.47;9.47;;;5.20;99.90;;;;;;5041985;28;20184;-78
2021/11/06 02:56:54;;;;;;;10.37;9.37;;;5.20;99.90;;;;;;5013355;28;20190;-78
2021/11/06 02:59:19;;;;;;;11.67;10.47;;;5.20;99.90;;;;;;5019728;28;20186;-78
2021/11/06 03:01:45;;;;;;;11.67;10.07;;;5.20;99.90;;;;;;5018542;28;20210;-77
2021/11/06 03:04:12;;;;;;;11.13;9.93;;;5.20;99.90;;;;;;5008355;28;20197;-79
2021/11/06 03:06:39;;;;;;;11.17;10.07;;;5.10;99.90;;;;;;5023258;28;20582;-78
2021/11/06 03:09:06;;;;;;;11.70;10.50;;;5.10;99.90;;;;;;4999519;28;20201;-77
2021/11/06 03:11:34;;;;;;;11.73;10.53;;;5.10;99.90;;;;;;5022084;28;20538;-79
2021/11/06 03:14:03;;;;;;;12.73;11.43;;;5.00;99.90;;;;;;5035609;28;20174;-78
2021/11/06 03:16:29;;;;;;;10.83;9.77;;;5.00;99.90;;;;;;5035700;28;20260;-77
2021/11/06 03:18:54;;;;;;;10.20;8.93;;;4.90;99.90;;;;;;5037249;28;20218;-78
2021/11/06 03:21:21;;;;;;;11.53;10.07;;;4.90;99.90;;;;;;5037472;28;20697;-77
2021/11/06 03:23:47;;;;;;;12.53;9.53;;;4.70;99.90;;;;;;5035943;28;20188;-78
2021/11/06 03:26:13;;;;;;;10.17;8.93;;;4.80;99.90;;;;;;5037018;28;20184;-78
2021/11/06 03:28:39;;;;;;;10.07;9.03;;;4.60;99.90;;;;;;5036988;28;20175;-77
2021/11/06 03:31:04;;;;;;;9.50;8.57;;;4.50;99.90;;;;;;5037154;28;20678;-77
2021/11/06 03:33:30;;;;;;;9.50;8.50;;;4.40;99.90;;;;;;5037574;28;20177;-78
2021/11/06 03:35:56;;;;;;;9.63;7.83;;;4.30;99.90;;;;;;5034738;28;20184;-77
2021/11/06 03:38:22;;;;;;;9.30;8.30;;;4.20;99.90;;;;;;5027108;28;20225;-77
2021/11/06 03:40:48;;;;;;;10.77;9.30;;;4.30;99.90;;;;;;5029368;28;20600;-77
2021/11/06 03:43:14;;;;;;;13.53;11.43;;;4.30;99.90;;;;;;4999917;28;20598;-78
2021/11/06 03:45:40;;;;;;;14.40;11.77;;;4.30;99.90;;;;;;5016154;28;20239;-77
2021/11/06 03:48:06;;;;;;;12.93;11.33;;;4.30;99.90;;;;;;5042346;28;20649;-78
2021/11/06 03:50:31;;;;;;;13.07;10.80;;;4.40;99.90;;;;;;5017332;28;20291;-77
2021/11/06 03:52:57;;;;;;;12.43;10.63;;;4.40;99.90;;;;;;4999363;28;20596;-78
2021/11/06 03:55:23;;;;;;;12.77;10.57;;;4.40;99.90;;;;;;5016964;28;20227;-77
2021/11/06 03:57:49;;;;;;;12.10;10.90;;;4.40;99.90;;;;;;5016686;28;20183;-77
2021/11/06 04:00:17;;;;;;;12.27;10.63;;;4.40;99.90;;;;;;5006351;28;20184;-78
2021/11/06 04:02:44;;;;;;;14.07;10.67;;;4.40;99.90;;;;;;4999470;28;20197;-77
2021/11/06 04:05:11;;;;;;;13.27;11.30;;;4.40;99.90;;;;;;5016460;28;20185;-77
2021/11/06 04:07:37;;;;;;;14.50;11.50;;;4.30;99.90;;;;;;5016925;28;20185;-76
2021/11/06 04:10:04;;;;;;;13.03;10.50;;;4.40;99.90;;;;;;4999125;28;20208;-77
2021/11/06 04:12:30;;;;;;;11.10;10.00;;;4.30;99.90;;;;;;5016241;28;20223;-77
2021/11/06 04:14:55;;;;;;;13.23;11.10;;;4.30;99.90;;;;;;4999266;28;20703;-77
2021/11/06 04:17:21;;;;;;;15.17;11.37;;;4.30;99.90;;;;;;5016759;28;20223;-77
2021/11/06 04:19:47;;;;;;;14.07;11.77;;;4.30;99.90;;;;;;5015852;28;20178;-78
2021/11/06 04:22:13;;;;;;;12.63;11.00;;;4.40;99.90;;;;;;4998115;28;20617;-79
2021/11/06 04:24:39;;;;;;;13.43;11.93;;;4.30;99.90;;;;;;5015702;28;20187;-77
2021/11/06 04:27:06;;;;;;;13.63;11.83;;;4.30;99.90;;;;;;5015304;28;20674;-78
2021/11/06 04:29:32;;;;;;;13.37;11.23;;;4.30;99.90;;;;;;5015329;28;20737;-77
2021/11/06 04:31:58;;;;;;;15.63;12.60;;;4.30;99.90;;;;;;5014836;28;20199;-78
2021/11/06 04:34:24;;;;;;;13.20;11.40;;;4.30;99.90;;;;;;5015008;28;20195;-79
2021/11/06 04:36:50;;;;;;;16.23;11.97;;;4.20;99.90;;;;;;5015154;28;20233;-77
2021/11/06 04:39:15;;;;;;;15.70;11.47;;;4.10;99.90;;;;;;5014960;28;20656;-78
2021/11/06 04:41:41;;;;;;;12.37;10.97;;;4.20;99.90;;;;;;5014931;28;20227;-77
2021/11/06 04:44:07;;;;;;;13.40;11.90;;;4.10;99.90;;;;;;5009948;28;20185;-77
2021/11/06 04:46:32;;;;;;;15.40;11.97;;;4.10;99.90;;;;;;5034339;28;20176;-77
2021/11/06 04:48:58;;;;;;;16.17;12.87;;;4.10;99.90;;;;;;5016420;28;20607;-77
2021/11/06 04:51:24;;;;;;;17.90;12.77;;;4.00;99.90;;;;;;5016270;28;20197;-77
2021/11/06 04:53:50;;;;;;;14.13;11.63;;;4.00;99.90;;;;;;5016857;28;20204;-77
2021/11/06 04:56:15;;;;;;;15.67;11.83;;;4.00;99.90;;;;;;5034792;28;20180;-78
2021/11/06 04:58:41;;;;;;;14.17;12.47;;;4.00;99.90;;;;;;5034463;28;20176;-77
2021/11/06 05:01:07;;;;;;;18.07;13.20;;;4.00;99.90;;;;;;5027244;28;20185;-77
2021/11/06 05:03:33;;;;;;;18.43;13.17;;;3.90;99.90;;;;;;5006333;28;20184;-77
2021/11/06 05:05:58;;;;;;;17.77;13.43;;;4.00;99.90;;;;;;5026024;28;20188;-78
2021/11/06 05:08:24;;;;;;;17.23;13.13;;;4.00;99.90;;;;;;5030031;28;20745;-77
2021/11/06 05:10:50;;;;;;;18.30;12.90;;;4.10;99.90;;;;;;5004107;28;20235;-77
2021/11/06 05:13:16;;;;;;;17.97;13.27;;;4.10;99.90;;;;;;5033436;28;20240;-76
2021/11/06 05:15:41;;;;;;;17.07;13.20;;;4.10;99.90;;;;;;5014846;28;20204;-77
2021/11/06 05:18:09;;;;;;;18.60;13.63;;;4.00;99.90;;;;;;5033608;28;20229;-77
2021/11/06 05:20:37;;;;;;;17.53;13.57;;;4.00;99.90;;;;;;5033318;28;20179;-77
2021/11/06 05:23:02;;;;;;;17.93;14.50;;;4.00;99.90;;;;;;5030955;28;20219;-77
2021/11/06 05:25:28;;;;;;;17.43;13.00;;;4.00;99.90;;;;;;5001337;28;20702;-75
2021/11/06 05:27:54;;;;;;;19.13;13.00;;;4.00;99.90;;;;;;4995523;28;20281;-77
2021/11/06 05:30:20;;;;;;;18.37;13.13;;;3.90;99.90;;;;;;5013356;28;20200;-79
2021/11/06 05:32:45;;;;;;;20.87;14.27;;;4.00;99.90;;;;;;5013787;28;20256;-77
2021/11/06 05:35:12;;;;;;;18.27;13.83;;;4.00;99.90;;;;;;5001132;28;20175;-77
2021/11/06 05:37:38;;;;;;;20.23;13.90;;;4.00;99.90;;;;;;5018667;28;20262;-78
2021/11/06 05:40:05;;;;;;;17.43;14.30;;;4.00;99.90;;;;;;5014183;28;20184;-77
2021/11/06 05:42:32;;;;;;;17.20;13.80;;;3.90;99.90;;;;;;5015847;28;20592;-77
2021/11/06 05:44:58;;;;;;;20.70;14.23;;;3.90;99.90;;;;;;5013347;28;20192;-78
2021/11/06 05:47:24;;;;;;;18.03;14.03;;;4.00;99.90;;;;;;5013397;28;20273;-78
2021/11/06 05:49:49;;;;;;;18.97;14.30;;;3.90;99.90;;;;;;5030714;28;20295;-78
2021/11/06 05:52:15;;;;;;;21.80;14.77;;;3.90;99.90;;;;;;5030864;28;20203;-77
2021/11/06 05:54:40;;;;;;;18.03;14.17;;;3.90;99.90;;;;;;5031059;28;20176;-77
2021/11/06 05:57:06;;;;;;;17.50;13.77;;;3.80;99.90;;;;;;5031223;28;20544;-78
2021/11/06 05:59:32;;;;;;;18.00;12.93;;;3.90;99.90;;;;;;5031775;28;20185;-78
2021/11/06 06:01:58;;;;;;;18.47;13.60;;;3.90;99.90;;;;;;5013607;28;20609;-77
2021/11/06 06:04:23;;;;;;;15.80;12.60;;;3.80;99.90;;;;;;5032594;28;20187;-77
2021/11/06 06:06:49;;;;;;;18.90;14.07;;;3.70;99.90;;;;;;5033245;28;20216;-77
2021/11/06 06:09:15;;;;;;;16.17;13.17;;;3.80;99.90;;;;;;5034229;28;20185;-77
2021/11/06 06:11:40;;;;;;;17.23;13.37;;;3.70;99.90;;;;;;5037090;28;20207;-78
2021/11/06 06:14:06;;;;;;;20.03;14.13;;;3.70;99.90;;;;;;5019549;28;20205;-77
2021/11/06 06:16:32;;;;;;;20.23;14.47;;;3.70;99.90;;;;;;5037233;28;20209;-78
2021/11/06 06:18:57;;;;;;;16.37;13.57;;;3.70;99.90;;;;;;5036755;28;20171;-78
2021/11/06 06:21:23;;;;;;;17.93;13.03;;;3.70;99.90;;;;;;5037300;28;20257;-78
2021/11/06 06:23:49;;;;;;;18.30;12.87;;;3.60;99.90;;;;;;5037353;28;20268;-78
2021/11/06 06:26:15;;;;;;;17.83;13.43;;;3.60;99.90;;;;;;5037059;28;20236;-78
2021/11/06 06:28:41;;;;;;;19.40;14.27;;;3.60;99.90;;;;;;5036972;28;20194;-77
2021/11/06 06:31:07;;;;;;;20.10;13.67;;;3.60;99.90;;;;;;5036910;28;20202;-77
2021/11/06 06:33:34;;;;;;;19.07;13.70;;;3.60;99.90;;;;;;5037173;28;20178;-77
2021/11/06 06:36:00;;;;;;;17.93;14.23;;;3.60;99.90;;;;;;5036702;28;20183;-77
2021/11/06 06:38:25;;;;;;;19.03;14.40;;;3.50;99.90;;;;;;5036990;28;20180;-77
2021/11/06 06:40:51;;;;;;;19.90;15.07;;;3.60;99.90;;;;;;5037081;28;20180;-77
2021/11/06 06:43:17;;;;;;;18.00;13.63;;;3.60;99.90;;;;;;5036960;28;20214;-77
2021/11/06 06:45:42;;;;;;;21.47;14.60;;;3.50;99.90;;;;;;5019563;28;20192;-77
2021/11/06 06:48:08;;;;;;;19.30;14.67;;;3.60;99.90;;;;;;5019228;28;20665;-77
2021/11/06 06:50:34;;;;;;;21.57;16.07;;;3.60;99.90;;;;;;5036579;28;20239;-78
2021/11/06 06:53:00;;;;;;;17.63;13.90;;;3.60;99.90;;;;;;5036927;28;20221;-78
2021/11/06 06:55:26;;;;;;;20.20;14.60;;;3.60;99.90;;;;;;5020477;28;20186;-78
2021/11/06 06:57:52;;;;;;;19.10;14.37;;;3.60;99.90;;;;;;5038452;28;20183;-78
2021/11/06 07:00:18;;;;;;;18.03;13.60;;;3.60;99.90;;;;;;5038041;28;20183;-78
2021/11/06 07:02:44;;;;;;;23.87;14.70;;;3.50;99.90;;;;;;5021062;28;20236;-78
2021/11/06 07:05:10;;;;;;;19.93;14.77;;;3.40;99.90;;;;;;5038186;28;20188;-78
2021/11/06 07:07:36;;;;;;;21.97;15.20;;;3.30;99.90;;;;;;5034812;28;20192;-78
2021/11/06 07:10:03;;;;;;;26.63;15.50;;;3.10;99.90;;;;;;5037884;28;20211;-78
2021/11/06 07:12:30;;;;;;;21.67;14.43;;;3.30;99.90;;;;;;5037763;28;20203;-78
2021/11/06 07:14:56;;;;;;;21.30;15.20;;;3.40;99.90;;;;;;5037576;28;20593;-78
2021/11/06 07:17:22;;;;;;;24.20;16.50;;;3.40;99.90;;;;;;5037920;28;20181;-78
2021/11/06 07:19:48;;;;;;;23.77;15.50;;;3.50;99.90;;;;;;5037705;28;20183;-78
2021/11/06 07:22:14;;;;;;;23.03;17.03;;;3.60;99.90;;;;;;5038002;28;20225;-78
2021/11/06 07:24:40;;;;;;;21.53;15.30;;;3.70;99.90;;;;;;5019950;28;20192;-78
2021/11/06 07:27:07;;;;;;;26.20;16.97;;;3.80;99.90;;;;;;5037896;28;20196;-78
2021/11/06 07:29:33;;;;;;;24.23;16.20;;;3.80;99.90;;;;;;5037525;28;20257;-79
2021/11/06 07:31:58;;;;;;;22.27;15.63;;;3.80;99.90;;;;;;5037488;28;20693;-77
2021/11/06 07:34:24;;;;;;;19.90;14.57;;;3.90;99.90;;;;;;5037361;28;20266;-79
2021/11/06 07:36:50;;;;;;;23.17;16.13;;;3.90;99.90;;;;;;5037615;28;20704;-78
2021/11/06 07:39:16;;;;;;;21.00;15.47;;;3.90;99.90;;;;;;5037655;28;20171;-78
2021/11/06 07:41:43;;;;;;;20.47;15.50;;;4.00;99.90;;;;;;5037267;28;20215;-78
2021/11/06 07:44:11;;;;;;;24.20;16.47;;;4.10;99.90;;;;;;5020024;28;20258;-78
2021/11/06 07:46:37;;;;;;;22.40;15.97;;;4.10;99.90;;;;;;5037244;28;20178;-78
2021/11/06 07:49:02;;;;;;;24.27;16.67;;;4.20;99.90;;;;;;5037359;28;20307;-78
2021/11/06 07:51:28;;;;;;;25.73;17.80;;;4.30;99.90;;;;;;5020172;28;20208;-79
2021/11/06 07:53:54;;;;;;;30.03;17.80;;;4.30;99.90;;;;;;5037615;28;20184;-78
2021/11/06 07:56:20;;;;;;;25.20;17.33;;;4.20;99.90;;;;;;5037361;28;20262;-79
2021/11/06 07:58:46;;;;;;;26.33;17.93;;;4.40;99.90;;;;;;5037876;28;20317;-78
2021/11/06 08:01:12;;;;;;;28.40;18.67;;;4.40;99.90;;;;;;5037237;28;20187;-78
2021/11/06 08:03:37;;;;;;;30.70;19.30;;;4.40;99.90;;;;;;5037027;28;20184;-78
2021/11/06 08:06:05;;;;;;;26.90;19.17;;;4.40;99.90;;;;;;5019873;28;20192;-78
2021/11/06 08:08:31;;;;;;;30.87;20.13;;;4.50;99.90;;;;;;5019931;28;20275;-78
2021/11/06 08:10:57;;;;;;;37.50;21.93;;;4.50;99.90;;;;;;5036478;28;20283;-78
2021/11/06 08:13:23;;;;;;;34.87;22.73;;;4.50;99.90;;;;;;5035670;28;20196;-78
2021/11/06 08:15:48;;;;;;;39.17;23.03;;;4.60;99.90;;;;;;5016909;28;20183;-78
2021/11/06 08:18:14;;;;;;;37.93;23.00;;;4.70;99.90;;;;;;5016980;28;20588;-78
2021/11/06 08:20:40;;;;;;;36.90;23.30;;;4.70;99.90;;;;;;5021818;28;20180;-78
2021/11/06 08:23:05;;;;;;;41.07;24.20;;;4.80;99.90;;;;;;5000670;28;20237;-78
2021/11/06 08:25:31;;;;;;;40.80;25.03;;;4.90;99.90;;;;;;5019734;28;20182;-78
2021/11/06 08:27:57;;;;;;;43.07;25.10;;;4.80;99.90;;;;;;5017624;28;20171;-78
2021/11/06 08:30:24;;;;;;;40.27;25.20;;;4.80;99.90;;;;;;5000108;28;20203;-77
2021/11/06 08:32:52;;;;;;;44.87;27.00;;;4.90;99.90;;;;;;5024517;28;20196;-77
2021/11/06 08:35:18;;;;;;;77.07;38.37;;;4.90;99.90;;;;;;5029186;28;20175;-78
2021/11/06 08:37:45;;;;;;;43.03;26.40;;;4.90;99.90;;;;;;5015088;28;20174;-78
2021/11/06 08:40:11;;;;;;;44.57;27.33;;;5.00;99.90;;;;;;5012341;28;20181;-78
2021/11/06 08:42:38;;;;;;;43.93;25.73;;;5.00;99.90;;;;;;5014556;28;20221;-78
2021/11/06 08:45:06;;;;;;;41.93;25.23;;;5.10;99.90;;;;;;5034699;28;20608;-78
2021/11/06 08:47:32;;;;;;;49.63;26.50;;;5.20;99.90;;;;;;5008743;28;20185;-78
2021/11/06 08:49:58;;;;;;;50.17;27.10;;;5.20;99.90;;;;;;5015990;28;20196;-78
2021/11/06 08:52:24;;;;;;;48.27;25.67;;;5.20;99.90;;;;;;5016008;28;20191;-77
2021/11/06 08:54:50;;;;;;;48.10;26.07;;;5.40;99.90;;;;;;5013616;28;20216;-78
2021/11/06 08:57:20;;;;;;;49.13;27.50;;;5.20;99.90;;;;;;5034832;28;20185;-78
2021/11/06 08:59:49;;;;;;;48.97;25.80;;;5.10;99.90;;;;;;5025015;28;20185;-78
2021/11/06 09:02:17;;;;;;;44.87;24.90;;;5.10;99.90;;;;;;5034554;28;20634;-78
2021/11/06 09:04:44;;;;;;;46.53;23.60;;;5.10;99.90;;;;;;5031128;28;20659;-78
2021/11/06 09:07:10;;;;;;;48.17;25.40;;;5.10;99.90;;;;;;5015789;28;20192;-78
2021/11/06 09:09:36;;;;;;;50.07;27.20;;;5.30;99.90;;;;;;5034383;28;20569;-78
2021/11/06 09:12:04;;;;;;;47.57;24.30;;;5.10;99.90;;;;;;5034518;28;20203;-77
2021/11/06 09:14:30;;;;;;;45.17;24.43;;;5.20;99.90;;;;;;5025265;28;20545;-77
2021/11/06 09:16:56;;;;;;;44.77;23.57;;;5.30;99.90;;;;;;5016392;28;20208;-77
2021/11/06 09:19:21;;;;;;;44.83;23.93;;;5.40;99.90;;;;;;5016787;28;20595;-78
2021/11/06 09:21:48;;;;;;;44.60;24.40;;;5.50;99.90;;;;;;5028873;28;20675;-78
2021/11/06 09:24:14;;;;;;;44.93;25.00;;;5.50;99.90;;;;;;5034839;28;20177;-77
2021/11/06 09:26:43;;;;;;;45.73;24.33;;;5.50;99.90;;;;;;5034890;28;20221;-78
2021/11/06 09:29:09;;;;;;;45.87;24.93;;;5.50;99.90;;;;;;5034885;28;20218;-77
2021/11/06 09:31:35;;;;;;;44.00;25.10;;;5.50;99.90;;;;;;5017225;28;20209;-78
2021/11/06 09:34:01;;;;;;;50.53;25.60;;;5.50;99.90;;;;;;5034688;28;20176;-78
2021/11/06 09:36:27;;;;;;;51.90;26.97;;;5.50;99.90;;;;;;5034183;28;20184;-76
2021/11/06 09:38:54;;;;;;;44.73;25.40;;;5.50;99.90;;;;;;5016772;28;20184;-78
2021/11/06 09:41:20;;;;;;;51.83;26.13;;;5.50;99.90;;;;;;5034447;28;20255;-77
2021/11/06 09:43:46;;;;;;;47.63;26.00;;;5.50;99.90;;;;;;5033698;28;20587;-77
2021/11/06 09:46:12;;;;;;;48.00;25.97;;;5.50;99.90;;;;;;5034747;28;20584;-78
2021/11/06 09:48:42;;;;;;;42.70;24.13;;;5.50;99.90;;;;;;5034575;28;20181;-78
2021/11/06 09:51:09;;;;;;;41.97;25.50;;;5.50;99.90;;;;;;5034230;28;20200;-77
2021/11/06 09:53:39;;;;;;;39.43;23.03;;;5.50;99.90;;;;;;5016713;28;20189;-78
2021/11/06 09:56:05;;;;;;;33.67;21.83;;;5.70;99.90;;;;;;5009636;28;20224;-78
2021/11/06 09:58:32;;;;;;;39.87;23.07;;;5.50;99.90;;;;;;5017045;28;20219;-77
2021/11/06 10:00:58;;;;;;;34.37;22.10;;;5.50;99.90;;;;;;5013126;28;20182;-78
2021/11/06 10:03:23;;;;;;;42.53;25.03;;;5.50;99.90;;;;;;5014735;28;20283;-78
2021/11/06 10:05:54;;;;;;;35.70;22.13;;;5.60;99.90;;;;;;5010037;28;20180;-78
2021/11/06 10:08:29;;;;;;;33.57;20.60;;;5.60;99.90;;;;;;5029355;28;20181;-78
2021/11/06 10:10:56;;;;;;;31.37;20.87;;;5.60;99.90;;;;;;5034239;28;20603;-78
2021/11/06 10:13:22;;;;;;;38.03;22.40;;;5.70;99.90;;;;;;5016662;28;20203;-78
2021/11/06 10:15:51;;;;;;;36.07;22.77;;;5.70;99.90;;;;;;5034086;28;20179;-78
2021/11/06 10:18:23;;;;;;;36.33;23.13;;;5.80;99.90;;;;;;5036765;28;20169;-77
2021/11/06 10:21:01;;;;;;;34.70;21.93;;;5.80;99.90;;;;;;5031396;28;20182;-78
2021/11/06 10:23:37;;;;;;;43.40;25.57;;;5.80;99.90;;;;;;5033629;28;20521;-78
2021/11/06 10:26:18;;;;;;;43.73;26.43;;;5.90;99.90;;;;;;5012953;28;20185;-78
2021/11/06 10:28:52;;;;;;;47.23;27.87;;;5.90;99.90;;;;;;5015759;28;20556;-77
2021/11/06 10:31:17;;;;;;;47.10;28.47;;;5.90;99.90;;;;;;5033488;28;20202;-77
2021/11/06 10:33:49;;;;;;;52.60;29.73;;;6.10;99.90;;;;;;5025240;28;20205;-78
2021/11/06 10:36:26;;;;;;;53.10;29.57;;;6.00;99.90;;;;;;5008421;28;20188;-85
2021/11/06 10:39:08;;;;;;;49.73;29.77;;;6.00;99.90;;;;;;5020225;28;20235;-84
2021/11/06 10:41:40;;;;;;;49.73;28.23;;;6.20;99.90;;;;;;5012406;28;20213;-85
2021/11/06 10:44:08;;;;;;;45.57;27.87;;;6.10;99.90;;;;;;5033715;28;20176;-85
2021/11/06 10:46:35;;;;;;;42.30;26.30;;;6.30;99.90;;;;;;5024450;28;20546;-85
2021/11/06 10:49:03;;;;;;;44.37;27.53;;;6.30;99.90;;;;;;5059252;22;20230;-78
2021/11/06 10:51:57;;;;;;;42.13;27.13;;;6.30;99.90;;;;;;5018759;28;20231;-78
2021/11/06 10:54:30;;;;;;;39.70;25.40;;;6.30;99.90;;;;;;5027668;28;20253;-77
2021/11/06 10:56:56;;;;;;;59.83;33.80;;;6.30;99.90;;;;;;5026023;28;20170;-79
2021/11/06 10:59:32;;;;;;;69.30;37.43;;;6.30;99.90;;;;;;5029870;23;20251;-77
2021/11/06 11:01:57;;;;;;;43.83;27.73;;;6.30;99.90;;;;;;5043072;28;20728;-80
2021/11/06 11:04:37;;;;;;;36.97;24.47;;;6.30;99.90;;;;;;5023453;28;20711;-77
2021/11/06 11:07:14;;;;;;;36.33;23.83;;;6.30;99.90;;;;;;5037101;28;20178;-77
2021/11/06 11:09:40;;;;;;;32.83;21.73;;;6.40;99.90;;;;;;5006855;28;20611;-78
2021/11/06 11:12:16;;;;;;;26.80;18.43;;;6.60;99.90;;;;;;5004407;28;20246;-78
2021/11/06 11:14:55;;;;;;;19.67;14.30;;;6.60;99.90;;;;;;5009789;28;20265;-77
2021/11/06 11:17:44;;;;;;;25.67;18.07;;;7.50;99.90;;;;;;5011187;28;20526;-78
2021/11/06 11:20:31;;;;;;;13.37;11.63;;;6.90;99.90;;;;;;5025572;28;20175;-80
2021/11/06 11:23:13;;;;;;;12.47;10.97;;;7.00;99.90;;;;;;5002872;28;20181;-78
2021/11/06 11:25:44;;;;;;;12.77;11.37;;;7.10;99.90;;;;;;5010172;28;20191;-78
2021/11/06 11:28:10;;;;;;;13.53;12.13;;;7.10;99.90;;;;;;5025911;28;20205;-81
2021/11/06 11:30:40;;;;;;;12.00;10.53;;;7.10;99.90;;;;;;5003994;28;20260;-78
2021/11/06 11:33:08;;;;;;;12.83;11.33;;;7.30;99.90;;;;;;5023990;28;20179;-80
2021/11/06 11:35:35;;;;;;;11.67;10.57;;;7.30;99.90;;;;;;5020666;28;20203;-78
2021/11/06 11:38:03;;;;;;;11.30;10.20;;;7.30;99.90;;;;;;5009501;28;20290;-78
2021/11/06 11:40:36;;;;;;;12.97;11.43;;;7.40;99.90;;;;;;5004125;28;20229;-81
2021/11/06 11:43:25;;;;;;;11.43;10.20;;;7.40;99.90;;;;;;5004103;28;20569;-78
2021/11/06 11:45:58;;;;;;;11.00;10.00;;;7.50;99.90;;;;;;5024376;28;20531;-78
2021/11/06 11:48:36;;;;;;;13.73;12.23;;;8.50;99.90;;;;;;5010005;28;20255;-78
2021/11/06 11:51:30;;;;;;;12.93;11.60;;;7.60;99.90;;;;;;5004626;28;20210;-77
2021/11/06 11:54:25;;;;;;;12.10;10.87;;;7.40;99.90;;;;;;5017059;28;20175;-78
2021/11/06 11:57:12;;;;;;;12.37;10.03;;;7.70;99.90;;;;;;4995578;28;20189;-80
2021/11/06 11:59:38;;;;;;;10.13;9.10;;;7.70;99.90;;;;;;5008618;28;20226;-78
2021/11/06 12:02:22;;;;;;;10.90;9.80;;;7.80;99.90;;;;;;5022547;28;20213;-78
2021/11/06 12:05:14;;;;;;;9.60;8.70;;;7.90;99.90;;;;;;5022310;28;20176;-77
2021/11/06 12:07:41;;;;;;;10.97;9.20;;;7.90;99.90;;;;;;4988589;28;20227;-81
2021/11/06 12:10:46;;;;;;;11.03;9.93;;;8.90;99.90;;;;;;5021772;28;20211;-78
2021/11/06 12:13:31;;;;;;;18.03;13.43;;;;;;;;;;4942337;29;20221;-77
2021/11/06 12:16:15;;;;;;;18.80;13.47;;;8.00;99.90;;;;;;4944991;29;20212;-78
2021/11/06 12:22:37;;;;;;;16.93;13.77;;;8.00;99.90;;;;;;5012916;28;20194;-78
2021/11/06 12:25:15;;;;;;;18.10;13.80;;;8.00;99.90;;;;;;5006638;28;20202;-81
2021/11/06 12:27:50;;;;;;;18.33;13.03;;;8.00;99.90;;;;;;5024917;28;20194;-80
2021/11/06 12:30:29;;;;;;;17.80;13.07;;;8.00;99.90;;;;;;5008293;28;20203;-78
2021/11/06 12:32:59;;;;;;;15.27;11.90;;;8.90;99.90;;;;;;5021663;28;20186;-78
2021/11/06 12:35:30;;;;;;;16.17;12.87;;;7.90;99.90;;;;;;5026374;28;20613;-78
2021/11/06 12:38:04;;;;;;;18.20;13.03;;;7.90;99.90;;;;;;5002742;28;20199;-78
2021/11/06 12:41:36;;;;;;;17.33;12.87;;;7.90;99.90;;;;;;5002277;28;20205;-78
2021/11/06 12:44:12;;;;;;;16.70;12.67;;;7.90;99.90;;;;;;5008342;28;20669;-78
2021/11/06 12:46:41;;;;;;;18.97;13.40;;;7.90;99.90;;;;;;5006841;28;20308;-78
2021/11/06 12:49:35;;;;;;;16.43;12.53;;;8.00;99.90;;;;;;5024556;28;20252;-78